sensor_id;sensor_type;location;lat;lon;timestamp;P1;durP1;ratioP1;P2;durP2;ratioP2
7029;SDS011;3556;53.500;10.176;2023-07-08T00:01:04;6.40;;;4.83;;
7029;SDS011;3556;53.500;10.176;2023-07-08T00:03:33;5.33;;;3.97;;
7029;SDS011;3556;53.500;10.176;2023-07-08T00:05:59;7.10;;;5.07;;
7029;SDS011;3556;53.500;10.176;2023-07-08T00:08:24;4.93;;;4.57;;
7029;SDS011;3556;53.500;10.176;2023-07-08T00:10:50;5.60;;;4.60;;
7029;SDS011;3556;53.500;10.176;2023-07-08T00:13:16;4.90;;;4.50;;
7029;SDS011;3556;53.500;10.176;2023-07-08T00:15:43;5.67;;;4.37;;
7029;SDS011;3556;53.500;10.176;2023-07-08T00:18:16;6.73;;;4.90;;
7029;SDS011;3556;53.500;10.176;2023-07-08T00:20:44;5.63;;;4.73;;
7029;SDS011;3556;53.500;10.176;2023-07-08T00:23:11;4.70;;;4.30;;
7029;SDS011;3556;53.500;10.176;2023-07-08T00:25:37;7.57;;;5.10;;
7029;SDS011;3556;53.500;10.176;2023-07-08T00:28:25;5.50;;;4.80;;
7029;SDS011;3556;53.500;10.176;2023-07-08T00:30:49;5.13;;;4.73;;
7029;SDS011;3556;53.500;10.176;2023-07-08T00:33:15;5.13;;;4.63;;
7029;SDS011;3556;53.500;10.176;2023-07-08T00:35:42;5.90;;;5.30;;
7029;SDS011;3556;53.500;10.176;2023-07-08T00:38:13;7.87;;;4.40;;
7029;SDS011;3556;53.500;10.176;2023-07-08T00:41:25;9.77;;;5.10;;
7029;SDS011;3556;53.500;10.176;2023-07-08T00:43:54;5.73;;;5.13;;
7029;SDS011;3556;53.500;10.176;2023-07-08T00:51:48;4.97;;;4.57;;
7029;SDS011;3556;53.500;10.176;2023-07-08T00:54:17;9.17;;;4.47;;
7029;SDS011;3556;53.500;10.176;2023-07-08T00:56:53;7.43;;;5.27;;
7029;SDS011;3556;53.500;10.176;2023-07-08T00:59:36;6.23;;;5.13;;
7029;SDS011;3556;53.500;10.176;2023-07-08T01:02:16;5.30;;;4.50;;
7029;SDS011;3556;53.500;10.176;2023-07-08T01:07:17;11.87;;;5.20;;
7029;SDS011;3556;53.500;10.176;2023-07-08T01:09:46;6.07;;;4.40;;
7029;SDS011;3556;53.500;10.176;2023-07-08T01:12:16;7.07;;;5.00;;
7029;SDS011;3556;53.500;10.176;2023-07-08T01:14:46;5.37;;;4.90;;
7029;SDS011;3556;53.500;10.176;2023-07-08T01:17:13;6.90;;;5.50;;
7029;SDS011;3556;53.500;10.176;2023-07-08T01:19:39;5.30;;;4.47;;
7029;SDS011;3556;53.500;10.176;2023-07-08T01:22:07;5.23;;;4.77;;
7029;SDS011;3556;53.500;10.176;2023-07-08T01:24:34;5.10;;;4.60;;
7029;SDS011;3556;53.500;10.176;2023-07-08T01:27:02;6.20;;;5.37;;
7029;SDS011;3556;53.500;10.176;2023-07-08T01:29:31;6.33;;;5.40;;
7029;SDS011;3556;53.500;10.176;2023-07-08T01:31:57;6.67;;;5.60;;
7029;SDS011;3556;53.500;10.176;2023-07-08T01:34:27;6.10;;;5.00;;
7029;SDS011;3556;53.500;10.176;2023-07-08T01:36:57;9.87;;;5.40;;
7029;SDS011;3556;53.500;10.176;2023-07-08T01:39:26;8.13;;;4.90;;
7029;SDS011;3556;53.500;10.176;2023-07-08T01:41:55;6.13;;;5.00;;
7029;SDS011;3556;53.500;10.176;2023-07-08T01:44:27;5.20;;;4.70;;
7029;SDS011;3556;53.500;10.176;2023-07-08T01:47:02;8.20;;;5.20;;
7029;SDS011;3556;53.500;10.176;2023-07-08T01:49:34;5.97;;;5.13;;
7029;SDS011;3556;53.500;10.176;2023-07-08T01:52:02;6.30;;;5.00;;
7029;SDS011;3556;53.500;10.176;2023-07-08T01:54:28;7.17;;;5.50;;
7029;SDS011;3556;53.500;10.176;2023-07-08T01:56:57;5.33;;;4.93;;
7029;SDS011;3556;53.500;10.176;2023-07-08T01:59:23;7.73;;;5.33;;
7029;SDS011;3556;53.500;10.176;2023-07-08T02:01:50;5.40;;;4.90;;
7029;SDS011;3556;53.500;10.176;2023-07-08T02:04:19;7.40;;;5.20;;
7029;SDS011;3556;53.500;10.176;2023-07-08T02:06:53;10.60;;;5.17;;
7029;SDS011;3556;53.500;10.176;2023-07-08T02:09:20;9.07;;;5.67;;
7029;SDS011;3556;53.500;10.176;2023-07-08T02:11:46;5.93;;;5.40;;
7029;SDS011;3556;53.500;10.176;2023-07-08T02:14:12;5.80;;;5.30;;
7029;SDS011;3556;53.500;10.176;2023-07-08T02:16:38;6.00;;;5.43;;
7029;SDS011;3556;53.500;10.176;2023-07-08T02:19:03;7.57;;;5.33;;
7029;SDS011;3556;53.500;10.176;2023-07-08T02:21:29;6.03;;;5.40;;
7029;SDS011;3556;53.500;10.176;2023-07-08T02:23:56;5.47;;;4.93;;
7029;SDS011;3556;53.500;10.176;2023-07-08T02:26:22;5.73;;;5.10;;
7029;SDS011;3556;53.500;10.176;2023-07-08T02:28:48;5.57;;;4.97;;
7029;SDS011;3556;53.500;10.176;2023-07-08T02:31:14;6.00;;;5.50;;
7029;SDS011;3556;53.500;10.176;2023-07-08T02:33:39;5.60;;;5.10;;
7029;SDS011;3556;53.500;10.176;2023-07-08T02:36:05;6.53;;;5.43;;
7029;SDS011;3556;53.500;10.176;2023-07-08T02:38:31;8.10;;;5.40;;
7029;SDS011;3556;53.500;10.176;2023-07-08T02:40:57;8.30;;;5.70;;
7029;SDS011;3556;53.500;10.176;2023-07-08T02:43:23;6.17;;;5.40;;
7029;SDS011;3556;53.500;10.176;2023-07-08T02:45:49;6.27;;;5.67;;
7029;SDS011;3556;53.500;10.176;2023-07-08T02:48:16;10.30;;;5.80;;
7029;SDS011;3556;53.500;10.176;2023-07-08T02:50:45;5.63;;;5.03;;
7029;SDS011;3556;53.500;10.176;2023-07-08T02:53:11;8.60;;;5.90;;
7029;SDS011;3556;53.500;10.176;2023-07-08T02:55:38;7.93;;;5.90;;
7029;SDS011;3556;53.500;10.176;2023-07-08T02:58:04;10.30;;;5.80;;
7029;SDS011;3556;53.500;10.176;2023-07-08T03:00:30;5.83;;;5.23;;
7029;SDS011;3556;53.500;10.176;2023-07-08T03:02:56;7.03;;;5.87;;
7029;SDS011;3556;53.500;10.176;2023-07-08T03:05:21;6.80;;;5.40;;
7029;SDS011;3556;53.500;10.176;2023-07-08T03:07:47;5.53;;;5.07;;
7029;SDS011;3556;53.500;10.176;2023-07-08T03:10:12;6.63;;;5.27;;
7029;SDS011;3556;53.500;10.176;2023-07-08T03:12:38;5.87;;;5.37;;
7029;SDS011;3556;53.500;10.176;2023-07-08T03:15:04;6.63;;;5.47;;
7029;SDS011;3556;53.500;10.176;2023-07-08T03:17:30;5.80;;;5.20;;
7029;SDS011;3556;53.500;10.176;2023-07-08T03:19:56;5.70;;;5.10;;
7029;SDS011;3556;53.500;10.176;2023-07-08T03:22:21;5.13;;;4.73;;
7029;SDS011;3556;53.500;10.176;2023-07-08T03:24:47;6.60;;;5.30;;
7029;SDS011;3556;53.500;10.176;2023-07-08T03:27:13;6.03;;;5.40;;
7029;SDS011;3556;53.500;10.176;2023-07-08T03:29:39;11.33;;;5.20;;
7029;SDS011;3556;53.500;10.176;2023-07-08T03:32:06;5.80;;;5.30;;
7029;SDS011;3556;53.500;10.176;2023-07-08T03:34:36;10.67;;;5.50;;
7029;SDS011;3556;53.500;10.176;2023-07-08T03:37:02;7.23;;;6.20;;
7029;SDS011;3556;53.500;10.176;2023-07-08T03:39:28;8.87;;;5.37;;
7029;SDS011;3556;53.500;10.176;2023-07-08T03:41:54;8.30;;;6.00;;
7029;SDS011;3556;53.500;10.176;2023-07-08T03:44:19;6.83;;;5.80;;
7029;SDS011;3556;53.500;10.176;2023-07-08T03:46:46;10.70;;;6.23;;
7029;SDS011;3556;53.500;10.176;2023-07-08T03:49:14;6.60;;;6.00;;
7029;SDS011;3556;53.500;10.176;2023-07-08T03:51:40;6.57;;;5.97;;
7029;SDS011;3556;53.500;10.176;2023-07-08T03:54:11;6.20;;;5.70;;
7029;SDS011;3556;53.500;10.176;2023-07-08T03:56:38;7.27;;;5.33;;
7029;SDS011;3556;53.500;10.176;2023-07-08T03:59:04;6.70;;;6.10;;
7029;SDS011;3556;53.500;10.176;2023-07-08T04:01:30;6.80;;;5.80;;
7029;SDS011;3556;53.500;10.176;2023-07-08T04:03:56;7.50;;;5.70;;
7029;SDS011;3556;53.500;10.176;2023-07-08T04:06:23;8.20;;;5.97;;
7029;SDS011;3556;53.500;10.176;2023-07-08T04:08:49;7.17;;;6.40;;
7029;SDS011;3556;53.500;10.176;2023-07-08T04:11:18;8.83;;;5.37;;
7029;SDS011;3556;53.500;10.176;2023-07-08T04:13:45;11.70;;;5.00;;
7029;SDS011;3556;53.500;10.176;2023-07-08T04:18:45;5.63;;;4.93;;
7029;SDS011;3556;53.500;10.176;2023-07-08T04:21:11;6.80;;;5.17;;
7029;SDS011;3556;53.500;10.176;2023-07-08T04:23:37;7.77;;;5.83;;
7029;SDS011;3556;53.500;10.176;2023-07-08T04:26:03;8.40;;;5.13;;
7029;SDS011;3556;53.500;10.176;2023-07-08T04:28:28;6.60;;;4.83;;
7029;SDS011;3556;53.500;10.176;2023-07-08T04:30:54;6.20;;;5.20;;
7029;SDS011;3556;53.500;10.176;2023-07-08T04:33:19;4.80;;;4.40;;
7029;SDS011;3556;53.500;10.176;2023-07-08T04:35:45;7.03;;;5.47;;
7029;SDS011;3556;53.500;10.176;2023-07-08T04:38:16;5.80;;;5.20;;
7029;SDS011;3556;53.500;10.176;2023-07-08T04:40:52;5.90;;;4.70;;
7029;SDS011;3556;53.500;10.176;2023-07-08T04:43:19;5.67;;;4.97;;
7029;SDS011;3556;53.500;10.176;2023-07-08T04:45:50;10.77;;;4.50;;
7029;SDS011;3556;53.500;10.176;2023-07-08T04:48:18;4.90;;;4.50;;
7029;SDS011;3556;53.500;10.176;2023-07-08T04:50:47;4.60;;;4.20;;
7029;SDS011;3556;53.500;10.176;2023-07-08T04:53:14;7.60;;;4.57;;
7029;SDS011;3556;53.500;10.176;2023-07-08T04:55:47;6.90;;;4.73;;
7029;SDS011;3556;53.500;10.176;2023-07-08T04:58:15;4.87;;;4.30;;
7029;SDS011;3556;53.500;10.176;2023-07-08T05:00:41;9.23;;;4.63;;
7029;SDS011;3556;53.500;10.176;2023-07-08T05:03:07;4.87;;;4.40;;
7029;SDS011;3556;53.500;10.176;2023-07-08T05:05:32;4.80;;;4.40;;
7029;SDS011;3556;53.500;10.176;2023-07-08T05:07:58;4.70;;;4.17;;
7029;SDS011;3556;53.500;10.176;2023-07-08T05:10:25;7.77;;;4.70;;
7029;SDS011;3556;53.500;10.176;2023-07-08T05:12:51;4.70;;;4.30;;
7029;SDS011;3556;53.500;10.176;2023-07-08T05:15:16;4.67;;;4.27;;
7029;SDS011;3556;53.500;10.176;2023-07-08T05:17:42;5.57;;;4.20;;
7029;SDS011;3556;53.500;10.176;2023-07-08T05:20:09;11.63;;;4.40;;
7029;SDS011;3556;53.500;10.176;2023-07-08T05:22:37;5.97;;;4.70;;
7029;SDS011;3556;53.500;10.176;2023-07-08T05:25:03;5.40;;;4.40;;
7029;SDS011;3556;53.500;10.176;2023-07-08T05:27:30;4.80;;;4.10;;
7029;SDS011;3556;53.500;10.176;2023-07-08T05:29:58;8.37;;;3.93;;
7029;SDS011;3556;53.500;10.176;2023-07-08T05:32:23;7.50;;;4.33;;
7029;SDS011;3556;53.500;10.176;2023-07-08T05:34:50;4.93;;;4.53;;
7029;SDS011;3556;53.500;10.176;2023-07-08T05:37:15;4.80;;;4.30;;
7029;SDS011;3556;53.500;10.176;2023-07-08T05:39:43;5.40;;;4.37;;
7029;SDS011;3556;53.500;10.176;2023-07-08T05:42:09;4.30;;;3.90;;
7029;SDS011;3556;53.500;10.176;2023-07-08T05:44:35;4.47;;;3.90;;
7029;SDS011;3556;53.500;10.176;2023-07-08T05:47:00;9.20;;;4.73;;
7029;SDS011;3556;53.500;10.176;2023-07-08T05:49:26;4.80;;;4.30;;
7029;SDS011;3556;53.500;10.176;2023-07-08T05:51:51;4.47;;;3.97;;
7029;SDS011;3556;53.500;10.176;2023-07-08T05:54:17;6.00;;;3.47;;
7029;SDS011;3556;53.500;10.176;2023-07-08T05:56:42;4.77;;;3.40;;
7029;SDS011;3556;53.500;10.176;2023-07-08T05:59:08;4.13;;;3.73;;
7029;SDS011;3556;53.500;10.176;2023-07-08T06:01:35;4.80;;;4.30;;
7029;SDS011;3556;53.500;10.176;2023-07-08T06:04:01;4.97;;;3.97;;
7029;SDS011;3556;53.500;10.176;2023-07-08T06:06:27;3.80;;;3.40;;
7029;SDS011;3556;53.500;10.176;2023-07-08T06:08:53;4.73;;;4.17;;
7029;SDS011;3556;53.500;10.176;2023-07-08T06:11:19;4.70;;;3.73;;
7029;SDS011;3556;53.500;10.176;2023-07-08T06:13:46;4.40;;;3.70;;
7029;SDS011;3556;53.500;10.176;2023-07-08T06:16:12;7.10;;;3.80;;
7029;SDS011;3556;53.500;10.176;2023-07-08T06:18:38;4.30;;;3.90;;
7029;SDS011;3556;53.500;10.176;2023-07-08T06:21:03;4.00;;;3.60;;
7029;SDS011;3556;53.500;10.176;2023-07-08T06:23:30;4.10;;;3.70;;
7029;SDS011;3556;53.500;10.176;2023-07-08T06:25:56;6.73;;;4.00;;
7029;SDS011;3556;53.500;10.176;2023-07-08T06:28:22;4.20;;;3.80;;
7029;SDS011;3556;53.500;10.176;2023-07-08T06:30:48;4.03;;;3.53;;
7029;SDS011;3556;53.500;10.176;2023-07-08T06:33:14;4.10;;;3.70;;
7029;SDS011;3556;53.500;10.176;2023-07-08T06:35:40;4.57;;;4.07;;
7029;SDS011;3556;53.500;10.176;2023-07-08T06:38:06;5.47;;;3.87;;
7029;SDS011;3556;53.500;10.176;2023-07-08T06:40:33;4.73;;;4.03;;
7029;SDS011;3556;53.500;10.176;2023-07-08T06:42:59;3.30;;;3.10;;
7029;SDS011;3556;53.500;10.176;2023-07-08T06:45:24;5.10;;;3.20;;
7029;SDS011;3556;53.500;10.176;2023-07-08T06:47:50;3.83;;;3.53;;
7029;SDS011;3556;53.500;10.176;2023-07-08T06:50:16;4.20;;;3.80;;
7029;SDS011;3556;53.500;10.176;2023-07-08T06:52:41;3.77;;;3.43;;
7029;SDS011;3556;53.500;10.176;2023-07-08T06:55:08;5.33;;;3.83;;
7029;SDS011;3556;53.500;10.176;2023-07-08T06:57:35;3.93;;;3.60;;
7029;SDS011;3556;53.500;10.176;2023-07-08T07:00:03;5.00;;;3.83;;
7029;SDS011;3556;53.500;10.176;2023-07-08T07:02:30;3.90;;;3.57;;
7029;SDS011;3556;53.500;10.176;2023-07-08T07:04:56;3.77;;;3.47;;
7029;SDS011;3556;53.500;10.176;2023-07-08T07:07:22;3.57;;;3.20;;
7029;SDS011;3556;53.500;10.176;2023-07-08T07:09:47;3.57;;;3.27;;
7029;SDS011;3556;53.500;10.176;2023-07-08T07:12:13;3.20;;;3.00;;
7029;SDS011;3556;53.500;10.176;2023-07-08T07:14:38;4.87;;;3.80;;
7029;SDS011;3556;53.500;10.176;2023-07-08T07:17:04;3.50;;;3.20;;
7029;SDS011;3556;53.500;10.176;2023-07-08T07:19:30;4.83;;;3.73;;
7029;SDS011;3556;53.500;10.176;2023-07-08T07:21:55;5.57;;;3.80;;
7029;SDS011;3556;53.500;10.176;2023-07-08T07:24:21;3.57;;;3.30;;
7029;SDS011;3556;53.500;10.176;2023-07-08T07:26:46;6.40;;;3.80;;
7029;SDS011;3556;53.500;10.176;2023-07-08T07:29:15;3.57;;;3.27;;
7029;SDS011;3556;53.500;10.176;2023-07-08T07:31:42;3.30;;;3.10;;
7029;SDS011;3556;53.500;10.176;2023-07-08T07:34:07;4.47;;;3.37;;
7029;SDS011;3556;53.500;10.176;2023-07-08T07:36:33;7.37;;;3.57;;
7029;SDS011;3556;53.500;10.176;2023-07-08T07:38:59;4.03;;;3.43;;
7029;SDS011;3556;53.500;10.176;2023-07-08T07:41:25;3.50;;;3.20;;
7029;SDS011;3556;53.500;10.176;2023-07-08T07:43:51;4.17;;;3.80;;
7029;SDS011;3556;53.500;10.176;2023-07-08T07:46:16;3.87;;;3.63;;
7029;SDS011;3556;53.500;10.176;2023-07-08T07:48:43;3.63;;;3.33;;
7029;SDS011;3556;53.500;10.176;2023-07-08T07:51:08;4.90;;;3.43;;
7029;SDS011;3556;53.500;10.176;2023-07-08T07:53:36;4.00;;;3.70;;
7029;SDS011;3556;53.500;10.176;2023-07-08T07:56:02;3.60;;;3.30;;
7029;SDS011;3556;53.500;10.176;2023-07-08T07:58:29;3.90;;;3.60;;
7029;SDS011;3556;53.500;10.176;2023-07-08T08:00:55;3.70;;;3.40;;
7029;SDS011;3556;53.500;10.176;2023-07-08T08:03:21;5.67;;;3.53;;
7029;SDS011;3556;53.500;10.176;2023-07-08T08:05:47;5.00;;;3.70;;
7029;SDS011;3556;53.500;10.176;2023-07-08T08:08:13;3.80;;;3.60;;
7029;SDS011;3556;53.500;10.176;2023-07-08T08:10:39;5.00;;;3.60;;
7029;SDS011;3556;53.500;10.176;2023-07-08T08:13:06;4.20;;;3.43;;
7029;SDS011;3556;53.500;10.176;2023-07-08T08:15:33;3.60;;;3.40;;
7029;SDS011;3556;53.500;10.176;2023-07-08T08:17:58;4.77;;;3.50;;
7029;SDS011;3556;53.500;10.176;2023-07-08T08:20:24;3.60;;;3.30;;
7029;SDS011;3556;53.500;10.176;2023-07-08T08:22:51;3.53;;;3.33;;
7029;SDS011;3556;53.500;10.176;2023-07-08T08:25:17;3.87;;;3.57;;
7029;SDS011;3556;53.500;10.176;2023-07-08T08:27:44;3.50;;;3.20;;
7029;SDS011;3556;53.500;10.176;2023-07-08T08:30:09;3.93;;;3.60;;
7029;SDS011;3556;53.500;10.176;2023-07-08T08:32:36;3.60;;;3.40;;
7029;SDS011;3556;53.500;10.176;2023-07-08T08:35:02;3.37;;;3.17;;
7029;SDS011;3556;53.500;10.176;2023-07-08T08:37:28;3.60;;;2.93;;
7029;SDS011;3556;53.500;10.176;2023-07-08T08:39:53;5.77;;;3.70;;
7029;SDS011;3556;53.500;10.176;2023-07-08T08:42:26;4.03;;;3.73;;
7029;SDS011;3556;53.500;10.176;2023-07-08T08:44:55;3.70;;;3.47;;
7029;SDS011;3556;53.500;10.176;2023-07-08T08:47:37;4.20;;;3.90;;
7029;SDS011;3556;53.500;10.176;2023-07-08T08:50:12;74.13;;;4.67;;
7029;SDS011;3556;53.500;10.176;2023-07-08T08:52:57;5.30;;;3.60;;
7029;SDS011;3556;53.500;10.176;2023-07-08T08:55:25;6.13;;;3.03;;
7029;SDS011;3556;53.500;10.176;2023-07-08T09:00:37;3.83;;;3.50;;
7029;SDS011;3556;53.500;10.176;2023-07-08T09:03:10;3.53;;;3.30;;
7029;SDS011;3556;53.500;10.176;2023-07-08T09:05:41;3.50;;;3.20;;
7029;SDS011;3556;53.500;10.176;2023-07-08T09:08:13;3.50;;;3.20;;
7029;SDS011;3556;53.500;10.176;2023-07-08T09:10:58;3.70;;;3.40;;
7029;SDS011;3556;53.500;10.176;2023-07-08T09:13:30;3.70;;;3.40;;
7029;SDS011;3556;53.500;10.176;2023-07-08T09:16:05;4.00;;;3.37;;
7029;SDS011;3556;53.500;10.176;2023-07-08T09:18:58;4.13;;;3.73;;
7029;SDS011;3556;53.500;10.176;2023-07-08T09:21:30;3.40;;;3.20;;
7029;SDS011;3556;53.500;10.176;2023-07-08T09:24:07;4.50;;;3.17;;
7029;SDS011;3556;53.500;10.176;2023-07-08T09:26:40;3.77;;;3.33;;
7029;SDS011;3556;53.500;10.176;2023-07-08T09:29:09;3.43;;;3.13;;
7029;SDS011;3556;53.500;10.176;2023-07-08T09:31:37;3.60;;;3.40;;
7029;SDS011;3556;53.500;10.176;2023-07-08T09:36:30;3.30;;;3.10;;
7029;SDS011;3556;53.500;10.176;2023-07-08T09:38:56;4.37;;;3.23;;
7029;SDS011;3556;53.500;10.176;2023-07-08T09:41:31;3.63;;;3.43;;
7029;SDS011;3556;53.500;10.176;2023-07-08T09:44:05;3.50;;;3.00;;
7029;SDS011;3556;53.500;10.176;2023-07-08T09:46:41;4.27;;;3.70;;
7029;SDS011;3556;53.500;10.176;2023-07-08T09:49:17;3.63;;;3.33;;
7029;SDS011;3556;53.500;10.176;2023-07-08T09:51:45;3.63;;;3.43;;
7029;SDS011;3556;53.500;10.176;2023-07-08T09:54:11;4.20;;;3.50;;
7029;SDS011;3556;53.500;10.176;2023-07-08T09:56:44;3.83;;;3.53;;
7029;SDS011;3556;53.500;10.176;2023-07-08T09:59:38;3.83;;;3.20;;
7029;SDS011;3556;53.500;10.176;2023-07-08T10:02:25;3.70;;;3.40;;
7029;SDS011;3556;53.500;10.176;2023-07-08T10:05:02;9.43;;;3.70;;
7029;SDS011;3556;53.500;10.176;2023-07-08T10:07:44;4.60;;;3.93;;
7029;SDS011;3556;53.500;10.176;2023-07-08T10:10:13;4.10;;;3.80;;
7029;SDS011;3556;53.500;10.176;2023-07-08T10:12:42;3.60;;;3.30;;
7029;SDS011;3556;53.500;10.176;2023-07-08T10:15:28;4.07;;;3.77;;
7029;SDS011;3556;53.500;10.176;2023-07-08T10:18:07;3.73;;;3.43;;
7029;SDS011;3556;53.500;10.176;2023-07-08T10:20:42;3.40;;;3.20;;
7029;SDS011;3556;53.500;10.176;2023-07-08T10:23:28;5.80;;;3.80;;
7029;SDS011;3556;53.500;10.176;2023-07-08T10:28:40;4.00;;;3.60;;
7029;SDS011;3556;53.500;10.176;2023-07-08T10:31:16;4.23;;;3.80;;
7029;SDS011;3556;53.500;10.176;2023-07-08T10:36:49;3.63;;;3.40;;
7029;SDS011;3556;53.500;10.176;2023-07-08T10:45:21;3.93;;;3.60;;
7029;SDS011;3556;53.500;10.176;2023-07-08T10:50:44;6.13;;;3.70;;
7029;SDS011;3556;53.500;10.176;2023-07-08T10:55:55;3.93;;;3.63;;
7029;SDS011;3556;53.500;10.176;2023-07-08T11:04:07;4.00;;;3.70;;
7029;SDS011;3556;53.500;10.176;2023-07-08T11:09:54;4.17;;;3.77;;
7029;SDS011;3556;53.500;10.176;2023-07-08T11:12:33;4.20;;;3.90;;
7029;SDS011;3556;53.500;10.176;2023-07-08T11:15:06;3.47;;;3.23;;
7029;SDS011;3556;53.500;10.176;2023-07-08T11:26:16;3.73;;;3.43;;
7029;SDS011;3556;53.500;10.176;2023-07-08T11:28:44;3.93;;;3.60;;
7029;SDS011;3556;53.500;10.176;2023-07-08T11:31:11;4.87;;;3.97;;
7029;SDS011;3556;53.500;10.176;2023-07-08T11:33:38;3.40;;;3.20;;
7029;SDS011;3556;53.500;10.176;2023-07-08T11:36:05;3.53;;;3.33;;
7029;SDS011;3556;53.500;10.176;2023-07-08T11:38:32;4.53;;;4.13;;
7029;SDS011;3556;53.500;10.176;2023-07-08T11:46:23;3.80;;;3.50;;
7029;SDS011;3556;53.500;10.176;2023-07-08T11:48:53;3.63;;;3.33;;
7029;SDS011;3556;53.500;10.176;2023-07-08T11:51:41;3.90;;;3.70;;
7029;SDS011;3556;53.500;10.176;2023-07-08T11:54:13;8.60;;;3.40;;
7029;SDS011;3556;53.500;10.176;2023-07-08T11:56:58;3.73;;;3.43;;
7029;SDS011;3556;53.500;10.176;2023-07-08T11:59:37;3.90;;;3.70;;
7029;SDS011;3556;53.500;10.176;2023-07-08T12:02:18;3.67;;;3.43;;
7029;SDS011;3556;53.500;10.176;2023-07-08T12:05:00;7.60;;;3.43;;
7029;SDS011;3556;53.500;10.176;2023-07-08T12:07:46;3.40;;;3.20;;
7029;SDS011;3556;53.500;10.176;2023-07-08T12:10:17;3.43;;;3.30;;
7029;SDS011;3556;53.500;10.176;2023-07-08T12:13:00;4.00;;;3.70;;
7029;SDS011;3556;53.500;10.176;2023-07-08T12:15:30;4.93;;;3.90;;
7029;SDS011;3556;53.500;10.176;2023-07-08T12:20:37;3.70;;;3.40;;
7029;SDS011;3556;53.500;10.176;2023-07-08T12:23:15;3.60;;;3.40;;
7029;SDS011;3556;53.500;10.176;2023-07-08T12:25:44;3.90;;;3.60;;
7029;SDS011;3556;53.500;10.176;2023-07-08T12:28:10;3.87;;;3.40;;
7029;SDS011;3556;53.500;10.176;2023-07-08T12:30:37;4.30;;;4.00;;
7029;SDS011;3556;53.500;10.176;2023-07-08T12:33:05;7.63;;;3.50;;
7029;SDS011;3556;53.500;10.176;2023-07-08T12:35:38;3.47;;;3.27;;
7029;SDS011;3556;53.500;10.176;2023-07-08T12:38:11;4.10;;;3.80;;
7029;SDS011;3556;53.500;10.176;2023-07-08T12:40:43;3.60;;;3.40;;
7029;SDS011;3556;53.500;10.176;2023-07-08T12:43:10;4.80;;;3.80;;
7029;SDS011;3556;53.500;10.176;2023-07-08T12:45:35;3.83;;;3.57;;
7029;SDS011;3556;53.500;10.176;2023-07-08T12:48:01;7.70;;;3.47;;
7029;SDS011;3556;53.500;10.176;2023-07-08T12:50:28;3.90;;;3.50;;
7029;SDS011;3556;53.500;10.176;2023-07-08T12:52:53;5.17;;;3.73;;
7029;SDS011;3556;53.500;10.176;2023-07-08T12:55:19;3.90;;;3.60;;
7029;SDS011;3556;53.500;10.176;2023-07-08T12:57:46;3.70;;;3.50;;
7029;SDS011;3556;53.500;10.176;2023-07-08T13:00:17;3.83;;;3.50;;
7029;SDS011;3556;53.500;10.176;2023-07-08T13:02:44;3.97;;;3.50;;
7029;SDS011;3556;53.500;10.176;2023-07-08T13:05:12;4.17;;;3.83;;
7029;SDS011;3556;53.500;10.176;2023-07-08T13:07:39;3.77;;;3.27;;
7029;SDS011;3556;53.500;10.176;2023-07-08T13:10:07;5.33;;;3.80;;
7029;SDS011;3556;53.500;10.176;2023-07-08T13:12:47;3.73;;;3.43;;
7029;SDS011;3556;53.500;10.176;2023-07-08T13:15:21;4.30;;;3.17;;
7029;SDS011;3556;53.500;10.176;2023-07-08T13:17:53;5.13;;;3.60;;
7029;SDS011;3556;53.500;10.176;2023-07-08T13:20:19;4.70;;;3.60;;
7029;SDS011;3556;53.500;10.176;2023-07-08T13:22:54;3.63;;;3.40;;
7029;SDS011;3556;53.500;10.176;2023-07-08T13:25:25;3.40;;;3.15;;
7029;SDS011;3556;53.500;10.176;2023-07-08T13:28:00;5.77;;;3.60;;
7029;SDS011;3556;53.500;10.176;2023-07-08T13:30:28;4.93;;;3.70;;
7029;SDS011;3556;53.500;10.176;2023-07-08T13:32:58;5.82;;;4.00;;
7029;SDS011;3556;53.500;10.176;2023-07-08T13:35:36;3.50;;;3.30;;
7029;SDS011;3556;53.500;10.176;2023-07-08T13:38:03;4.43;;;4.13;;
7029;SDS011;3556;53.500;10.176;2023-07-08T13:40:29;4.20;;;3.78;;
7029;SDS011;3556;53.500;10.176;2023-07-08T13:42:56;4.05;;;3.75;;
7029;SDS011;3556;53.500;10.176;2023-07-08T13:45:23;4.32;;;3.75;;
7029;SDS011;3556;53.500;10.176;2023-07-08T13:47:58;3.70;;;3.30;;
7029;SDS011;3556;53.500;10.176;2023-07-08T13:50:38;5.25;;;3.78;;
7029;SDS011;3556;53.500;10.176;2023-07-08T13:56:07;4.75;;;3.63;;
7029;SDS011;3556;53.500;10.176;2023-07-08T13:58:42;4.20;;;3.88;;
7029;SDS011;3556;53.500;10.176;2023-07-08T14:01:17;4.03;;;3.72;;
7029;SDS011;3556;53.500;10.176;2023-07-08T14:03:45;6.82;;;4.38;;
7029;SDS011;3556;53.500;10.176;2023-07-08T14:06:13;4.38;;;4.03;;
7029;SDS011;3556;53.500;10.176;2023-07-08T14:08:40;4.13;;;3.83;;
7029;SDS011;3556;53.500;10.176;2023-07-08T14:11:06;3.88;;;3.58;;
7029;SDS011;3556;53.500;10.176;2023-07-08T14:13:31;3.88;;;3.47;;
7029;SDS011;3556;53.500;10.176;2023-07-08T14:15:58;3.40;;;3.20;;
7029;SDS011;3556;53.500;10.176;2023-07-08T14:18:23;3.88;;;3.50;;
7029;SDS011;3556;53.500;10.176;2023-07-08T14:20:49;3.67;;;3.47;;
7029;SDS011;3556;53.500;10.176;2023-07-08T14:23:15;4.05;;;3.75;;
7029;SDS011;3556;53.500;10.176;2023-07-08T14:25:40;4.00;;;3.70;;
7029;SDS011;3556;53.500;10.176;2023-07-08T14:28:06;3.93;;;3.73;;
7029;SDS011;3556;53.500;10.176;2023-07-08T14:30:32;4.10;;;3.77;;
7029;SDS011;3556;53.500;10.176;2023-07-08T14:33:01;3.80;;;3.60;;
7029;SDS011;3556;53.500;10.176;2023-07-08T14:35:27;4.40;;;3.87;;
7029;SDS011;3556;53.500;10.176;2023-07-08T14:37:54;3.95;;;3.63;;
7029;SDS011;3556;53.500;10.176;2023-07-08T14:40:25;5.07;;;3.63;;
7029;SDS011;3556;53.500;10.176;2023-07-08T14:43:00;4.22;;;3.83;;
7029;SDS011;3556;53.500;10.176;2023-07-08T14:45:29;5.40;;;3.60;;
7029;SDS011;3556;53.500;10.176;2023-07-08T14:47:58;4.43;;;4.03;;
7029;SDS011;3556;53.500;10.176;2023-07-08T14:50:24;5.47;;;4.03;;
7029;SDS011;3556;53.500;10.176;2023-07-08T14:52:50;5.03;;;4.17;;
7029;SDS011;3556;53.500;10.176;2023-07-08T14:55:17;4.00;;;3.70;;
7029;SDS011;3556;53.500;10.176;2023-07-08T14:57:43;3.70;;;3.50;;
7029;SDS011;3556;53.500;10.176;2023-07-08T15:00:13;3.80;;;3.50;;
7029;SDS011;3556;53.500;10.176;2023-07-08T15:02:41;6.00;;;4.30;;
7029;SDS011;3556;53.500;10.176;2023-07-08T15:05:13;3.92;;;3.63;;
7029;SDS011;3556;53.500;10.176;2023-07-08T15:07:40;4.30;;;4.00;;
7029;SDS011;3556;53.500;10.176;2023-07-08T15:10:07;7.13;;;4.30;;
7029;SDS011;3556;53.500;10.176;2023-07-08T15:12:33;3.63;;;3.43;;
7029;SDS011;3556;53.500;10.176;2023-07-08T15:14:59;4.27;;;3.93;;
7029;SDS011;3556;53.500;10.176;2023-07-08T15:17:24;4.77;;;4.30;;
7029;SDS011;3556;53.500;10.176;2023-07-08T15:19:50;4.50;;;4.20;;
7029;SDS011;3556;53.500;10.176;2023-07-08T15:22:16;4.10;;;3.90;;
7029;SDS011;3556;53.500;10.176;2023-07-08T15:24:41;4.33;;;3.80;;
7029;SDS011;3556;53.500;10.176;2023-07-08T15:27:11;7.73;;;4.13;;
7029;SDS011;3556;53.500;10.176;2023-07-08T15:29:38;5.93;;;3.80;;
7029;SDS011;3556;53.500;10.176;2023-07-08T15:32:08;4.50;;;4.10;;
7029;SDS011;3556;53.500;10.176;2023-07-08T15:34:40;4.80;;;3.90;;
7029;SDS011;3556;53.500;10.176;2023-07-08T15:37:06;5.10;;;4.60;;
7029;SDS011;3556;53.500;10.176;2023-07-08T23:47:02;4.00;;;3.30;;
7029;SDS011;3556;53.500;10.176;2023-07-08T23:49:29;3.13;;;2.70;;
7029;SDS011;3556;53.500;10.176;2023-07-08T23:51:59;6.70;;;3.17;;
7029;SDS011;3556;53.500;10.176;2023-07-08T23:54:27;3.37;;;3.07;;
7029;SDS011;3556;53.500;10.176;2023-07-08T23:56:55;5.33;;;3.40;;
7029;SDS011;3556;53.500;10.176;2023-07-08T23:59:24;5.73;;;3.23;;
